createdAt,value
2022-12-01T00:01:15.006Z,17.37
2022-12-01T00:03:41.552Z,18.27
2022-12-01T00:06:11.651Z,16.73
2022-12-01T00:08:39.445Z,17.13
2022-12-01T00:11:06.223Z,17.77
2022-12-01T00:13:33.083Z,17.03
2022-12-01T00:18:54.444Z,17.03
2022-12-01T00:24:06.859Z,18.50
2022-12-01T00:29:17.513Z,18.23
2022-12-01T00:31:45.452Z,17.87
2022-12-01T00:34:14.127Z,17.20
2022-12-01T00:36:40.963Z,15.83
2022-12-01T00:39:07.702Z,15.70
2022-12-01T00:41:34.283Z,15.17
2022-12-01T00:44:00.799Z,15.50
2022-12-01T00:46:27.341Z,15.73
2022-12-01T00:48:53.972Z,15.03
2022-12-01T00:51:20.492Z,16.00
2022-12-01T00:53:47.126Z,14.80
2022-12-01T00:56:13.787Z,14.30
2022-12-01T00:58:40.390Z,14.53
2022-12-01T01:01:06.999Z,15.03
2022-12-01T01:03:33.831Z,14.13
2022-12-01T01:06:07.164Z,14.27
2022-12-01T01:08:33.702Z,14.93
2022-12-01T01:11:00.507Z,14.83
2022-12-01T01:13:27.139Z,14.80
2022-12-01T01:16:00.258Z,13.73
2022-12-01T01:18:26.786Z,14.40
2022-12-01T01:20:57.128Z,13.73
2022-12-01T01:23:23.736Z,13.30
2022-12-01T01:25:50.385Z,14.30
2022-12-01T01:28:17.048Z,14.23
2022-12-01T01:30:43.699Z,14.50
2022-12-01T01:33:10.466Z,13.37
2022-12-01T01:35:37.280Z,13.30
2022-12-01T01:38:03.931Z,13.77
2022-12-01T01:40:32.879Z,13.20
2022-12-01T01:42:59.509Z,13.40
2022-12-01T01:45:27.824Z,13.70
2022-12-01T01:47:54.390Z,12.90
2022-12-01T01:50:22.258Z,12.93
2022-12-01T01:52:51.808Z,13.03
2022-12-01T01:55:18.568Z,12.80
2022-12-01T01:57:45.194Z,12.30
2022-12-01T02:00:12.642Z,12.43
2022-12-01T02:02:40.861Z,12.70
2022-12-01T02:05:11.100Z,13.03
2022-12-01T02:07:38.664Z,12.93
2022-12-01T02:10:05.862Z,12.00
2022-12-01T02:12:47.959Z,12.90
2022-12-01T02:15:29.970Z,11.47
2022-12-01T02:18:05.344Z,12.47
2022-12-01T02:20:40.829Z,12.87
2022-12-01T02:23:26.254Z,12.80
2022-12-01T02:25:58.779Z,12.23
2022-12-01T02:31:16.185Z,12.37
2022-12-01T02:36:38.570Z,11.63
2022-12-01T02:39:13.825Z,12.13
2022-12-01T02:41:43.263Z,12.23
2022-12-01T02:44:20.381Z,11.77
2022-12-01T02:46:48.741Z,12.27
2022-12-01T02:49:16.467Z,11.30
2022-12-01T02:51:47.006Z,11.37
2022-12-01T02:54:14.128Z,11.63
2022-12-01T02:56:40.840Z,11.60
2022-12-01T02:59:11.127Z,11.47
2022-12-01T03:01:51.130Z,12.17
2022-12-01T03:04:17.863Z,12.30
2022-12-01T03:06:50.566Z,11.70
2022-12-01T03:09:27.441Z,13.23
2022-12-01T03:11:54.034Z,12.60
2022-12-01T03:14:23.236Z,11.90
2022-12-01T03:16:53.315Z,10.93
2022-12-01T03:19:22.229Z,11.03
2022-12-01T03:24:59.291Z,10.63
2022-12-01T03:27:27.390Z,9.90
2022-12-01T03:29:54.770Z,10.23
2022-12-01T03:32:26.151Z,10.67
2022-12-01T03:37:49.572Z,11.23
2022-12-01T03:40:18.247Z,11.30
2022-12-01T03:42:46.450Z,11.63
2022-12-01T03:45:15.532Z,10.57
2022-12-01T03:47:42.157Z,11.33
2022-12-01T03:50:11.415Z,10.90
2022-12-01T03:52:42.224Z,11.70
2022-12-01T03:55:12.093Z,11.57
2022-12-01T03:57:41.425Z,11.27
2022-12-01T04:00:08.351Z,10.60
2022-12-01T04:02:39.031Z,10.70
2022-12-01T04:05:05.960Z,10.43
2022-12-01T04:07:32.550Z,10.60
2022-12-01T04:09:59.208Z,9.97
2022-12-01T04:15:17.210Z,10.30
2022-12-01T04:20:28.384Z,10.37
2022-12-01T04:22:55.040Z,11.10
2022-12-01T04:25:21.661Z,11.30
2022-12-01T04:27:49.351Z,11.03
2022-12-01T04:30:15.964Z,11.73
2022-12-01T04:32:43.148Z,10.73
2022-12-01T04:35:10.268Z,11.10
2022-12-01T04:37:36.992Z,11.67
2022-12-01T04:40:03.918Z,11.80
2022-12-01T04:42:30.428Z,11.47
2022-12-01T04:44:57.113Z,12.27
2022-12-01T04:47:23.623Z,11.30
2022-12-01T04:49:50.344Z,11.53
2022-12-01T04:52:17.057Z,12.37
2022-12-01T04:54:43.684Z,12.03
2022-12-01T04:57:10.181Z,11.87
2022-12-01T04:59:36.868Z,11.50
2022-12-01T05:02:05.186Z,10.57
2022-12-01T05:04:34.142Z,10.27
2022-12-01T05:07:00.875Z,10.90
2022-12-01T05:09:27.636Z,9.43
2022-12-01T05:11:54.413Z,10.30
2022-12-01T05:17:06.533Z,9.87
2022-12-01T05:19:52.018Z,10.93
2022-12-01T05:22:31.476Z,10.13
2022-12-01T05:25:05.404Z,9.40
2022-12-01T05:27:31.928Z,10.03
2022-12-01T05:29:59.048Z,10.80
2022-12-01T05:32:26.117Z,10.57
2022-12-01T05:34:52.809Z,10.43
2022-12-01T05:37:19.496Z,9.70
2022-12-01T05:39:46.384Z,10.33
2022-12-01T05:42:13.225Z,9.83
2022-12-01T05:44:39.734Z,10.40
2022-12-01T05:49:50.611Z,9.23
2022-12-01T05:55:01.988Z,10.30
2022-12-01T05:57:28.504Z,10.63
2022-12-01T05:59:56.493Z,10.43
2022-12-01T06:02:24.890Z,11.03
2022-12-01T06:04:51.873Z,10.70
2022-12-01T06:07:18.465Z,10.50
2022-12-01T06:09:46.685Z,10.50
2022-12-01T06:12:13.417Z,10.63
2022-12-01T06:14:39.971Z,10.30
2022-12-01T06:17:07.158Z,10.53
2022-12-01T06:19:33.828Z,9.90
2022-12-01T06:22:00.441Z,10.50
2022-12-01T06:24:27.070Z,11.30
2022-12-01T06:26:53.693Z,11.40
2022-12-01T06:29:22.518Z,10.50
2022-12-01T06:31:53.987Z,10.47
2022-12-01T06:34:20.784Z,10.37
2022-12-01T06:36:47.362Z,10.43
2022-12-01T06:39:15.162Z,9.03
2022-12-01T06:41:42.225Z,9.33
2022-12-01T06:44:08.974Z,9.40
2022-12-01T06:46:35.713Z,9.70
2022-12-01T06:49:03.222Z,9.13
2022-12-01T06:51:30.524Z,9.50
2022-12-01T06:54:02.145Z,9.83
2022-12-01T06:56:34.885Z,9.77
2022-12-01T06:59:01.792Z,9.40
2022-12-01T07:01:29.206Z,9.93
2022-12-01T07:03:55.926Z,10.13
2022-12-01T07:06:23.045Z,9.27
2022-12-01T07:08:49.910Z,10.17
2022-12-01T07:14:00.636Z,9.87
2022-12-01T07:16:27.214Z,9.80
2022-12-01T07:18:53.851Z,11.93
2022-12-01T07:21:20.392Z,13.17
2022-12-01T07:23:48.459Z,10.00
2022-12-01T07:26:15.756Z,9.53
2022-12-01T07:28:42.468Z,10.33
2022-12-01T07:31:13.420Z,12.37
2022-12-01T07:33:44.302Z,12.27
2022-12-01T07:36:14.017Z,20.37
2022-12-01T07:38:41.219Z,19.47
2022-12-01T07:41:08.765Z,12.73
2022-12-01T07:43:35.580Z,12.03
2022-12-01T07:46:24.951Z,10.70
2022-12-01T07:48:51.971Z,10.40
2022-12-01T07:51:18.682Z,10.83
2022-12-01T07:56:29.926Z,10.40
2022-12-01T07:58:56.497Z,12.07
2022-12-01T08:01:23.553Z,11.53
2022-12-01T08:03:50.576Z,11.60
2022-12-01T08:06:17.490Z,11.57
2022-12-01T08:08:44.120Z,11.03
2022-12-01T08:11:14.764Z,11.63
2022-12-01T08:13:41.465Z,11.20
2022-12-01T08:16:08.701Z,11.47
2022-12-01T08:18:35.772Z,12.63
2022-12-01T08:21:02.726Z,13.40
2022-12-01T08:23:29.534Z,12.37
2022-12-01T08:25:57.602Z,13.50
2022-12-01T08:28:24.627Z,14.73
2022-12-01T08:30:51.419Z,13.70
2022-12-01T08:33:18.520Z,13.17
2022-12-01T08:35:45.659Z,13.10
2022-12-01T08:38:13.012Z,11.93
2022-12-01T08:40:39.906Z,12.73
2022-12-01T08:43:07.269Z,12.57
2022-12-01T08:45:34.251Z,12.83
2022-12-01T08:48:01.079Z,12.53
2022-12-01T08:50:28.130Z,12.20
2022-12-01T08:52:56.858Z,11.23
2022-12-01T08:55:23.535Z,9.60
2022-12-01T08:57:51.621Z,9.20
2022-12-01T09:00:24.274Z,8.67
2022-12-01T09:02:51.110Z,7.33
2022-12-01T09:08:20.953Z,8.17
2022-12-01T09:13:35.963Z,11.03
2022-12-01T09:16:05.676Z,7.73
2022-12-01T09:18:32.499Z,9.20
2022-12-01T09:20:59.129Z,7.90
2022-12-01T09:26:13.614Z,8.57
2022-12-01T09:31:24.879Z,9.87
2022-12-01T09:33:55.583Z,6.23
2022-12-01T09:36:22.394Z,6.13
2022-12-01T09:38:49.191Z,6.13
2022-12-01T09:41:26.499Z,6.47
2022-12-01T09:43:58.707Z,6.37
2022-12-01T09:46:26.828Z,6.37
2022-12-01T09:48:53.551Z,9.07
2022-12-01T09:51:21.202Z,8.17
2022-12-01T09:53:52.004Z,7.97
2022-12-01T09:56:24.050Z,6.87
2022-12-01T10:01:37.772Z,7.97
2022-12-01T10:04:20.189Z,7.90
2022-12-01T10:06:52.103Z,7.30
2022-12-01T10:09:19.005Z,7.27
2022-12-01T10:11:46.128Z,6.60
2022-12-01T10:14:19.447Z,7.03
2022-12-01T10:16:56.442Z,7.13
2022-12-01T10:19:33.007Z,7.17
2022-12-01T10:21:59.786Z,7.07
2022-12-01T10:24:32.919Z,6.73
2022-12-01T10:26:59.518Z,6.77
2022-12-01T10:29:47.540Z,6.97
2022-12-01T10:32:17.889Z,6.87
2022-12-01T10:34:46.995Z,7.33
2022-12-01T10:37:24.168Z,7.23
2022-12-01T10:42:46.146Z,6.97
2022-12-01T10:45:39.112Z,7.37
2022-12-01T10:48:34.903Z,7.67
2022-12-01T10:51:22.852Z,7.37
2022-12-01T10:53:49.501Z,7.20
2022-12-01T10:56:17.120Z,7.80
2022-12-01T10:58:46.547Z,7.13
2022-12-01T11:01:35.865Z,7.30
2022-12-01T11:04:07.139Z,7.60
2022-12-01T11:06:34.269Z,7.70
2022-12-01T11:09:04.947Z,7.47
2022-12-01T11:11:35.643Z,7.50
2022-12-01T11:14:03.131Z,7.87
2022-12-01T11:16:34.467Z,8.67
2022-12-01T11:19:08.252Z,8.70
2022-12-01T11:21:35.148Z,8.57
2022-12-01T11:24:02.204Z,7.30
2022-12-01T11:26:32.424Z,6.93
2022-12-01T11:28:59.624Z,6.90
2022-12-01T11:31:36.949Z,6.10
2022-12-01T11:34:03.609Z,5.57
2022-12-01T11:36:36.979Z,5.70
2022-12-01T11:39:04.062Z,6.23
2022-12-01T11:41:32.943Z,5.97
2022-12-01T11:44:01.796Z,6.37
2022-12-01T11:46:30.170Z,6.37
2022-12-01T11:48:57.494Z,5.73
2022-12-01T11:51:24.280Z,6.10
2022-12-01T11:53:51.074Z,5.53
2022-12-01T11:56:23.599Z,6.10
2022-12-01T11:58:51.702Z,5.30
2022-12-01T12:01:37.603Z,6.50
2022-12-01T12:07:06.416Z,6.37
2022-12-01T12:12:30.890Z,5.80
2022-12-01T12:15:17.850Z,5.80
2022-12-01T12:17:49.795Z,6.43
2022-12-01T12:20:18.612Z,6.73
2022-12-01T12:22:54.966Z,6.33
2022-12-01T12:25:28.799Z,5.83
2022-12-01T12:28:05.009Z,5.40
2022-12-01T12:30:32.520Z,5.33
2022-12-01T12:33:18.040Z,5.60
2022-12-01T12:35:45.577Z,5.63
2022-12-01T12:38:25.950Z,5.80
2022-12-01T12:41:16.054Z,4.23
2022-12-01T12:43:43.905Z,3.73
2022-12-01T12:46:14.325Z,4.33
2022-12-01T12:51:40.418Z,4.03
2022-12-01T12:54:07.013Z,4.77
2022-12-01T12:56:34.182Z,4.00
2022-12-01T12:59:01.580Z,4.70
2022-12-01T13:01:29.410Z,4.43
2022-12-01T13:03:57.849Z,4.13
2022-12-01T13:06:37.111Z,3.80
2022-12-01T13:09:06.912Z,4.33
2022-12-01T13:11:36.294Z,4.80
2022-12-01T13:14:07.656Z,4.90
2022-12-01T13:16:35.968Z,5.23
2022-12-01T13:19:08.256Z,5.10
2022-12-01T13:21:41.068Z,5.20
2022-12-01T13:24:22.736Z,5.23
2022-12-01T13:27:08.649Z,5.07
2022-12-01T13:29:47.622Z,5.60
2022-12-01T13:32:47.013Z,5.80
2022-12-01T13:35:25.620Z,5.13
2022-12-01T13:37:52.362Z,5.77
2022-12-01T13:40:29.351Z,4.90
2022-12-01T13:42:59.533Z,5.67
2022-12-01T13:45:26.097Z,5.60
2022-12-01T13:47:54.905Z,5.07
2022-12-01T13:50:40.440Z,5.50
2022-12-01T13:53:10.470Z,4.83
2022-12-01T13:55:48.318Z,5.60
2022-12-01T13:58:15.195Z,7.20
2022-12-01T14:00:43.260Z,5.27
2022-12-01T14:03:14.037Z,10.97
2022-12-01T14:05:41.009Z,9.40
2022-12-01T14:08:19.555Z,7.77
2022-12-01T14:10:53.438Z,8.07
2022-12-01T14:13:21.361Z,8.80
2022-12-01T14:15:52.795Z,8.67
2022-12-01T14:18:23.032Z,10.60
2022-12-01T14:20:49.798Z,10.73
2022-12-01T14:23:24.687Z,9.47
2022-12-01T14:26:11.934Z,9.80
2022-12-01T14:28:57.486Z,10.70
2022-12-01T14:31:24.480Z,10.73
2022-12-01T14:33:58.015Z,12.47
2022-12-01T14:36:24.860Z,12.63
2022-12-01T14:38:53.488Z,13.07
2022-12-01T14:41:24.673Z,11.87
2022-12-01T14:44:03.757Z,11.07
2022-12-01T14:46:46.208Z,12.10
2022-12-01T14:49:17.914Z,21.37
2022-12-01T14:51:45.893Z,18.43
2022-12-01T14:54:18.090Z,16.90
2022-12-01T14:56:46.276Z,19.30
2022-12-01T14:59:21.109Z,18.83
2022-12-01T15:01:49.327Z,14.00
2022-12-01T15:04:16.064Z,12.83
2022-12-01T15:06:43.646Z,12.40
2022-12-01T15:12:00.257Z,12.33
2022-12-01T15:17:31.340Z,13.87
2022-12-01T15:22:42.072Z,12.20
2022-12-01T15:25:11.144Z,12.53
2022-12-01T15:27:37.743Z,10.17
2022-12-01T15:30:05.362Z,22.77
2022-12-01T15:32:32.631Z,18.00
2022-12-01T15:35:02.025Z,14.43
2022-12-01T15:37:28.747Z,9.87
2022-12-01T15:40:11.971Z,10.60
2022-12-01T15:42:43.503Z,9.97
2022-12-01T15:45:16.357Z,9.00
2022-12-01T15:47:47.298Z,10.03
2022-12-01T15:50:27.773Z,9.97
2022-12-01T15:52:56.004Z,9.13
2022-12-01T15:55:25.608Z,10.00
2022-12-01T15:57:52.256Z,10.73
2022-12-01T16:00:20.362Z,9.27
2022-12-01T16:02:49.975Z,9.93
2022-12-01T16:05:17.600Z,16.77
2022-12-01T16:08:12.546Z,15.90
2022-12-01T16:10:34.354Z,16.97
2022-12-01T16:13:20.455Z,17.73
2022-12-01T16:15:49.059Z,15.17
2022-12-01T16:18:32.137Z,13.07
2022-12-01T16:21:03.316Z,15.27
2022-12-01T16:23:30.152Z,18.20
2022-12-01T16:26:01.710Z,15.70
2022-12-01T16:28:33.133Z,15.90
2022-12-01T16:30:59.824Z,12.97
2022-12-01T16:33:27.073Z,12.87
2022-12-01T16:35:55.376Z,12.67
2022-12-01T16:38:23.754Z,12.70
2022-12-01T16:40:52.218Z,13.47
2022-12-01T16:43:19.604Z,14.87
2022-12-01T16:45:46.931Z,12.63
2022-12-01T16:48:19.400Z,12.37
2022-12-01T16:50:46.474Z,31.97
2022-12-01T16:53:13.270Z,15.07
2022-12-01T16:55:53.423Z,16.53
2022-12-01T16:58:20.470Z,16.33
2022-12-01T17:00:52.652Z,16.07
2022-12-01T17:03:21.507Z,17.43
2022-12-01T17:05:48.785Z,15.30
2022-12-01T17:08:15.885Z,19.97
2022-12-01T17:10:43.541Z,15.47
2022-12-01T17:13:10.403Z,15.50
2022-12-01T17:15:41.391Z,14.83
2022-12-01T17:18:09.314Z,13.67
2022-12-01T17:20:36.005Z,13.00
2022-12-01T17:23:05.500Z,16.83
2022-12-01T17:25:32.419Z,17.53
2022-12-01T17:27:59.198Z,16.70
2022-12-01T17:30:26.379Z,21.10
2022-12-01T17:32:53.275Z,24.20
2022-12-01T17:35:19.989Z,21.80
2022-12-01T17:37:47.576Z,20.23
2022-12-01T17:40:14.827Z,25.13
2022-12-01T17:42:46.780Z,42.20
2022-12-01T17:45:16.418Z,27.70
2022-12-01T17:47:45.491Z,34.60
2022-12-01T17:50:12.257Z,34.60
2022-12-01T17:52:39.188Z,25.50
2022-12-01T17:55:06.477Z,29.20
2022-12-01T17:57:33.127Z,26.77
2022-12-01T18:02:47.844Z,19.93
2022-12-01T18:05:14.760Z,20.37
2022-12-01T18:07:41.748Z,20.37
2022-12-01T18:10:08.587Z,20.67
2022-12-01T18:12:39.607Z,23.53
2022-12-01T18:15:06.465Z,21.77
2022-12-01T18:17:33.141Z,20.20
2022-12-01T18:19:59.822Z,21.63
2022-12-01T18:22:26.376Z,20.93
2022-12-01T18:24:53.339Z,21.47
2022-12-01T18:27:20.093Z,21.57
2022-12-01T18:29:46.702Z,22.90
2022-12-01T18:32:14.287Z,25.83
2022-12-01T18:34:40.982Z,24.03
2022-12-01T18:37:07.912Z,26.90
2022-12-01T18:39:36.118Z,41.93
2022-12-01T18:42:02.828Z,33.87
2022-12-01T18:44:29.529Z,30.00
2022-12-01T18:46:57.857Z,24.80
2022-12-01T18:49:25.614Z,25.80
2022-12-01T18:51:52.376Z,23.77
2022-12-01T18:54:19.180Z,21.67
2022-12-01T18:56:51.124Z,28.63
2022-12-01T18:59:18.642Z,29.80
2022-12-01T19:01:46.731Z,30.27
2022-12-01T19:04:13.835Z,28.30
2022-12-01T19:06:40.709Z,22.47
2022-12-01T19:09:09.228Z,21.03
2022-12-01T19:11:36.102Z,21.03
2022-12-01T19:14:04.097Z,28.67
2022-12-01T19:16:34.600Z,22.17
2022-12-01T19:19:02.027Z,22.10
2022-12-01T19:21:28.956Z,21.60
2022-12-01T19:23:57.287Z,21.37
2022-12-01T19:29:12.620Z,21.17
2022-12-01T19:31:39.560Z,23.03
2022-12-01T19:34:07.848Z,21.90
2022-12-01T19:36:35.065Z,17.47
2022-12-01T19:41:46.853Z,26.47
2022-12-01T19:46:58.515Z,23.50
2022-12-01T19:49:25.230Z,24.30
2022-12-01T19:51:52.017Z,30.07
2022-12-01T19:54:19.507Z,31.83
2022-12-01T19:56:46.426Z,21.83
2022-12-01T19:59:14.663Z,19.70
2022-12-01T20:01:43.787Z,18.97
2022-12-01T20:04:10.868Z,23.20
2022-12-01T20:06:37.985Z,20.00
2022-12-01T20:09:06.799Z,23.50
2022-12-01T20:11:35.471Z,21.87
2022-12-01T20:14:02.523Z,17.03
2022-12-01T20:16:32.514Z,20.50
2022-12-01T20:21:52.555Z,24.93
2022-12-01T20:24:20.424Z,19.27
2022-12-01T20:26:48.557Z,17.40
2022-12-01T20:29:17.890Z,17.77
2022-12-01T20:31:45.979Z,15.67
2022-12-01T20:34:14.173Z,27.40
2022-12-01T20:36:40.912Z,16.73
2022-12-01T20:39:09.215Z,15.13
2022-12-01T20:41:35.922Z,12.50
2022-12-01T20:44:07.246Z,13.47
2022-12-01T20:46:34.827Z,11.67
2022-12-01T20:49:01.380Z,12.50
2022-12-01T20:51:28.157Z,11.37
2022-12-01T20:54:26.238Z,11.10
2022-12-01T20:56:41.463Z,11.70
2022-12-01T20:59:09.507Z,12.57
2022-12-01T21:01:36.425Z,12.97
2022-12-01T21:04:03.157Z,12.70
2022-12-01T21:06:30.088Z,13.87
2022-12-01T21:08:56.653Z,12.57
2022-12-01T21:11:46.268Z,12.03
2022-12-01T21:14:33.566Z,12.57
2022-12-01T21:17:02.029Z,12.57
2022-12-01T21:19:31.585Z,12.93
2022-12-01T21:21:58.351Z,12.80
2022-12-01T21:24:33.569Z,12.97
2022-12-01T21:27:02.996Z,13.87
2022-12-01T21:29:39.323Z,16.50
2022-12-01T21:32:18.386Z,15.37
2022-12-01T21:34:49.642Z,13.07
2022-12-01T21:37:24.126Z,12.10
2022-12-01T21:39:51.269Z,11.50
2022-12-01T21:42:36.367Z,11.90
2022-12-01T21:45:06.116Z,12.07
2022-12-01T21:47:32.986Z,11.70
2022-12-01T21:50:00.157Z,12.20
2022-12-01T21:52:30.661Z,12.20
2022-12-01T21:55:01.752Z,11.50
2022-12-01T21:57:47.992Z,11.00
2022-12-01T22:00:30.046Z,11.93
2022-12-01T22:02:56.647Z,10.63
2022-12-01T22:05:27.064Z,11.77
2022-12-01T22:07:56.349Z,11.97
2022-12-01T22:13:53.582Z,12.43
2022-12-01T22:16:26.329Z,13.37
2022-12-01T22:18:53.658Z,13.00
2022-12-01T22:21:20.209Z,14.87
2022-12-01T22:23:47.269Z,14.27
2022-12-01T22:26:18.964Z,12.93
2022-12-01T22:28:45.637Z,12.67
2022-12-01T22:31:15.858Z,12.17
2022-12-01T22:33:42.612Z,12.03
2022-12-01T22:36:38.801Z,12.40
2022-12-01T22:39:28.258Z,12.13
2022-12-01T22:44:45.035Z,11.30
2022-12-01T22:47:11.665Z,10.73
2022-12-01T22:49:38.151Z,10.40
2022-12-01T22:55:06.464Z,10.50
2022-12-01T22:57:34.908Z,10.70
2022-12-01T23:00:17.593Z,10.60
2022-12-01T23:02:44.511Z,10.93
2022-12-01T23:05:23.476Z,11.23
2022-12-01T23:07:50.262Z,11.27
2022-12-01T23:10:24.331Z,10.43
2022-12-01T23:12:51.644Z,12.77
2022-12-01T23:15:21.594Z,11.90
2022-12-01T23:17:48.344Z,10.53
2022-12-01T23:23:06.961Z,11.23
2022-12-01T23:28:17.289Z,10.33
2022-12-01T23:30:44.573Z,10.33
2022-12-01T23:33:11.276Z,11.27
2022-12-01T23:38:45.510Z,11.70
2022-12-01T23:44:33.134Z,11.20
2022-12-01T23:46:59.825Z,11.93
2022-12-01T23:49:28.294Z,11.50
2022-12-01T23:51:55.720Z,11.83
2022-12-01T23:57:21.678Z,12.03
2022-12-01T23:59:48.880Z,11.60
